createdAt,value
2023-04-16T00:00:33.505Z,1014.22
2023-04-16T00:01:33.680Z,1014.22
2023-04-16T00:02:33.987Z,1014.22
2023-04-16T00:03:34.266Z,1014.22
2023-04-16T00:04:34.315Z,1014.21
2023-04-16T00:05:34.412Z,1014.24
2023-04-16T00:06:34.638Z,1014.23
2023-04-16T00:07:34.759Z,1014.25
2023-04-16T00:08:34.930Z,1014.25
2023-04-16T00:09:35.108Z,1014.30
2023-04-16T00:10:35.310Z,1014.26
2023-04-16T00:11:35.426Z,1014.30
2023-04-16T00:12:35.612Z,1014.30
2023-04-16T00:13:35.815Z,1014.29
2023-04-16T00:14:35.936Z,1014.28
2023-04-16T00:15:36.110Z,1014.29
2023-04-16T00:16:36.311Z,1014.30
2023-04-16T00:17:36.501Z,1014.33
2023-04-16T00:18:36.599Z,1014.34
2023-04-16T00:19:36.768Z,1014.32
2023-04-16T00:20:36.961Z,1014.33
2023-04-16T00:21:37.138Z,1014.32
2023-04-16T00:22:37.330Z,1014.35
2023-04-16T00:23:37.464Z,1014.36
2023-04-16T00:24:37.645Z,1014.36
2023-04-16T00:25:37.828Z,1014.33
2023-04-16T00:26:37.983Z,1014.35
2023-04-16T00:27:38.160Z,1014.38
2023-04-16T00:28:38.366Z,1014.38
2023-04-16T00:29:38.501Z,1014.37
2023-04-16T00:30:38.728Z,1014.37
2023-04-16T00:31:38.873Z,1014.38
2023-04-16T00:32:39.004Z,1014.39
2023-04-16T00:33:39.221Z,1014.37
2023-04-16T00:34:39.358Z,1014.39
2023-04-16T00:35:39.505Z,1014.36
2023-04-16T00:36:39.678Z,1014.38
2023-04-16T00:37:39.873Z,1014.34
2023-04-16T00:38:40.079Z,1014.33
2023-04-16T00:39:40.214Z,1014.34
2023-04-16T00:40:40.394Z,1014.36
2023-04-16T00:41:40.552Z,1014.37
2023-04-16T00:42:40.748Z,1014.37
2023-04-16T00:43:40.916Z,1014.33
2023-04-16T00:44:41.095Z,1014.33
2023-04-16T00:45:41.280Z,1014.33
2023-04-16T00:46:41.553Z,1014.41
2023-04-16T00:47:41.678Z,1014.39
2023-04-16T00:48:41.822Z,1014.40
2023-04-16T00:49:41.992Z,1014.36
2023-04-16T00:50:42.176Z,1014.41
2023-04-16T00:51:42.347Z,1014.41
2023-04-16T00:52:42.552Z,1014.41
2023-04-16T00:53:42.669Z,1014.37
2023-04-16T00:54:42.861Z,1014.39
2023-04-16T00:55:43.006Z,1014.39
2023-04-16T00:56:43.195Z,1014.39
2023-04-16T00:57:43.367Z,1014.40
2023-04-16T00:58:43.549Z,1014.36
2023-04-16T00:59:43.711Z,1014.36
2023-04-16T01:00:43.891Z,1014.36
2023-04-16T01:01:44.112Z,1014.37
2023-04-16T01:02:44.362Z,1014.41
2023-04-16T01:03:44.476Z,1014.44
2023-04-16T01:04:44.562Z,1014.39
2023-04-16T01:05:44.765Z,1014.45
2023-04-16T01:06:44.894Z,1014.45
2023-04-16T01:07:45.090Z,1014.41
2023-04-16T01:08:45.255Z,1014.46
2023-04-16T01:09:45.427Z,1014.46
2023-04-16T01:10:45.589Z,1014.49
2023-04-16T01:11:45.760Z,1014.49
2023-04-16T01:12:45.952Z,1014.47
2023-04-16T01:13:46.103Z,1014.53
2023-04-16T01:14:46.250Z,1014.49
2023-04-16T01:15:46.467Z,1014.51
2023-04-16T01:16:46.595Z,1014.51
2023-04-16T01:17:46.820Z,1014.53
2023-04-16T01:18:46.935Z,1014.53
2023-04-16T01:19:47.093Z,1014.56
2023-04-16T01:20:47.254Z,1014.57
2023-04-16T01:21:47.428Z,1014.57
2023-04-16T01:22:47.592Z,1014.61
2023-04-16T01:23:47.776Z,1014.63
2023-04-16T01:24:47.942Z,1014.61
2023-04-16T01:25:48.127Z,1014.61
2023-04-16T01:26:48.294Z,1014.65
2023-04-16T01:27:48.495Z,1014.65
2023-04-16T01:28:48.625Z,1014.66
2023-04-16T01:29:48.832Z,1014.64
2023-04-16T01:30:48.987Z,1014.66
2023-04-16T01:31:49.246Z,1014.66
2023-04-16T01:32:49.388Z,1014.63
2023-04-16T01:33:49.530Z,1014.63
2023-04-16T01:34:49.658Z,1014.65
2023-04-16T01:35:49.825Z,1014.65
2023-04-16T01:36:49.988Z,1014.68
2023-04-16T01:37:50.161Z,1014.71
2023-04-16T01:38:50.360Z,1014.66
2023-04-16T01:39:50.508Z,1014.68
2023-04-16T01:40:50.685Z,1014.71
2023-04-16T01:41:50.854Z,1014.70
2023-04-16T01:42:51.023Z,1014.71
2023-04-16T01:43:51.223Z,1014.71
2023-04-16T01:44:51.357Z,1014.67
2023-04-16T01:45:51.564Z,1014.70
2023-04-16T01:46:51.721Z,1014.69
2023-04-16T01:47:51.916Z,1014.70
2023-04-16T01:48:52.056Z,1014.72
2023-04-16T01:49:52.212Z,1014.77
2023-04-16T01:50:52.342Z,1014.74
2023-04-16T01:51:52.565Z,1014.73
2023-04-16T01:52:52.672Z,1014.75
2023-04-16T01:53:52.878Z,1014.74
2023-04-16T01:54:53.012Z,1014.76
2023-04-16T01:55:53.207Z,1014.77
2023-04-16T01:56:53.377Z,1014.75
2023-04-16T01:57:53.556Z,1014.77
2023-04-16T01:58:53.754Z,1014.79
2023-04-16T01:59:53.892Z,1014.78
2023-04-16T02:00:54.078Z,1014.77
2023-04-16T02:01:54.362Z,1014.82
2023-04-16T02:02:54.542Z,1014.76
2023-04-16T02:03:54.720Z,1014.81
2023-04-16T02:04:54.756Z,1014.78
2023-04-16T02:05:54.920Z,1014.78
2023-04-16T02:06:55.090Z,1014.82
2023-04-16T02:07:55.249Z,1014.79
2023-04-16T02:08:55.428Z,1014.80
2023-04-16T02:09:55.619Z,1014.80
2023-04-16T02:10:55.805Z,1014.83
2023-04-16T02:11:55.958Z,1014.82
2023-04-16T02:12:56.169Z,1014.90
2023-04-16T02:13:56.284Z,1014.86
2023-04-16T02:14:56.474Z,1014.89
2023-04-16T02:15:56.636Z,1014.84
2023-04-16T02:16:56.899Z,1014.91
2023-04-16T02:17:57.239Z,1014.87
2023-04-16T02:18:57.183Z,1014.88
2023-04-16T02:19:57.359Z,1014.87
2023-04-16T02:20:57.512Z,1014.89
2023-04-16T02:21:57.653Z,1014.86
2023-04-16T02:22:57.826Z,1014.88
2023-04-16T02:23:58.027Z,1014.93
2023-04-16T02:24:58.161Z,1014.93
2023-04-16T02:25:58.321Z,1014.90
2023-04-16T02:26:58.494Z,1014.89
2023-04-16T02:27:58.662Z,1014.87
2023-04-16T02:28:58.876Z,1014.88
2023-04-16T02:29:58.995Z,1014.90
2023-04-16T02:30:59.198Z,1014.91
2023-04-16T02:31:59.420Z,1014.90
2023-04-16T02:32:59.626Z,1014.91
2023-04-16T02:33:59.766Z,1014.98
2023-04-16T02:34:59.876Z,1014.92
2023-04-16T02:36:00.067Z,1014.93
2023-04-16T02:37:00.242Z,1014.96
2023-04-16T02:38:00.467Z,1014.94
2023-04-16T02:39:00.591Z,1014.95
2023-04-16T02:40:00.753Z,1014.96
2023-04-16T02:41:00.925Z,1014.99
2023-04-16T02:42:01.087Z,1015.01
2023-04-16T02:43:01.303Z,1014.96
2023-04-16T02:44:01.474Z,1014.98
2023-04-16T02:45:01.605Z,1015.00
2023-04-16T02:46:01.825Z,1015.02
2023-04-16T02:47:02.198Z,1015.03
2023-04-16T02:48:02.226Z,1015.03
2023-04-16T02:49:02.332Z,1015.04
2023-04-16T02:50:02.424Z,1015.06
2023-04-16T02:51:02.609Z,1015.03
2023-04-16T02:52:02.765Z,1015.02
2023-04-16T02:53:02.944Z,1015.03
2023-04-16T02:54:03.126Z,1015.05
2023-04-16T02:55:03.278Z,1015.04
2023-04-16T02:56:03.453Z,1015.02
2023-04-16T02:57:03.657Z,1015.03
2023-04-16T02:58:03.797Z,1015.02
2023-04-16T02:59:03.950Z,1014.99
2023-04-16T03:00:04.117Z,1015.05
2023-04-16T03:01:04.297Z,1015.04
2023-04-16T03:02:04.489Z,1015.04
2023-04-16T03:03:04.681Z,1015.05
2023-04-16T03:04:04.858Z,1015.07
2023-04-16T03:05:05.006Z,1015.05
2023-04-16T03:06:05.151Z,1015.09
2023-04-16T03:07:05.311Z,1015.10
2023-04-16T03:08:05.516Z,1015.05
2023-04-16T03:09:05.660Z,1015.09
2023-04-16T03:10:05.828Z,1015.11
2023-04-16T03:11:05.997Z,1015.15
2023-04-16T03:12:06.202Z,1015.14
2023-04-16T03:13:06.359Z,1015.13
2023-04-16T03:14:06.477Z,1015.17
2023-04-16T03:15:06.665Z,1015.20
2023-04-16T03:16:06.899Z,1015.20
2023-04-16T03:17:07.009Z,1015.19
2023-04-16T03:18:07.152Z,1015.19
2023-04-16T03:19:07.478Z,1015.20
2023-04-16T03:20:07.509Z,1015.24
2023-04-16T03:21:07.684Z,1015.25
2023-04-16T03:22:07.878Z,1015.26
2023-04-16T03:23:08.101Z,1015.23
2023-04-16T03:24:08.226Z,1015.22
2023-04-16T03:25:08.408Z,1015.23
2023-04-16T03:26:08.572Z,1015.22
2023-04-16T03:27:08.852Z,1015.24
2023-04-16T03:28:08.908Z,1015.25
2023-04-16T03:29:09.277Z,1015.25
2023-04-16T03:30:09.263Z,1015.24
2023-04-16T03:31:09.458Z,1015.24
2023-04-16T03:32:09.604Z,1015.23
2023-04-16T03:33:09.773Z,1015.24
2023-04-16T03:34:09.957Z,1015.24
2023-04-16T03:35:10.146Z,1015.27
2023-04-16T03:36:10.283Z,1015.27
2023-04-16T03:37:10.489Z,1015.26
2023-04-16T03:38:10.640Z,1015.27
2023-04-16T03:39:10.991Z,1015.31
2023-04-16T03:40:10.957Z,1015.31
2023-04-16T03:41:11.157Z,1015.29
2023-04-16T03:42:11.339Z,1015.28
2023-04-16T03:43:11.502Z,1015.33
2023-04-16T03:44:11.676Z,1015.31
2023-04-16T03:45:11.848Z,1015.30
2023-04-16T03:46:12.048Z,1015.31
2023-04-16T03:47:12.220Z,1015.30
2023-04-16T03:48:12.401Z,1015.29
2023-04-16T03:49:12.564Z,1015.28
2023-04-16T03:50:12.728Z,1015.32
2023-04-16T03:51:12.975Z,1015.34
2023-04-16T03:52:13.056Z,1015.30
2023-04-16T03:53:13.216Z,1015.38
2023-04-16T03:54:13.388Z,1015.32
2023-04-16T03:55:13.557Z,1015.33
2023-04-16T03:56:13.747Z,1015.40
2023-04-16T03:57:13.920Z,1015.43
2023-04-16T03:58:14.109Z,1015.39
2023-04-16T03:59:14.250Z,1015.41
2023-04-16T04:00:14.425Z,1015.44
2023-04-16T04:01:14.604Z,1015.43
2023-04-16T04:02:14.820Z,1015.47
2023-04-16T04:03:15.044Z,1015.45
2023-04-16T04:04:15.213Z,1015.48
2023-04-16T04:05:15.284Z,1015.50
2023-04-16T04:06:15.456Z,1015.56
2023-04-16T04:07:15.627Z,1015.58
2023-04-16T04:08:15.780Z,1015.58
2023-04-16T04:09:15.992Z,1015.56
2023-04-16T04:10:16.174Z,1015.61
2023-04-16T04:11:16.386Z,1015.61
2023-04-16T04:12:16.515Z,1015.63
2023-04-16T04:13:16.684Z,1015.65
2023-04-16T04:14:16.856Z,1015.62
2023-04-16T04:15:17.057Z,1015.67
2023-04-16T04:16:17.235Z,1015.67
2023-04-16T04:17:17.341Z,1015.66
2023-04-16T04:18:17.542Z,1015.73
2023-04-16T04:19:17.697Z,1015.71
2023-04-16T04:20:17.872Z,1015.71
2023-04-16T04:21:18.086Z,1015.69
2023-04-16T04:22:18.235Z,1015.70
2023-04-16T04:23:18.448Z,1015.73
2023-04-16T04:24:18.586Z,1015.74
2023-04-16T04:25:18.810Z,1015.75
2023-04-16T04:26:18.979Z,1015.76
2023-04-16T04:27:19.117Z,1015.76
2023-04-16T04:28:19.314Z,1015.77
2023-04-16T04:29:19.460Z,1015.78
2023-04-16T04:30:19.602Z,1015.79
2023-04-16T04:31:19.897Z,1015.83
2023-04-16T04:32:19.986Z,1015.85
2023-04-16T04:33:20.136Z,1015.82
2023-04-16T04:34:20.289Z,1015.83
2023-04-16T04:35:20.470Z,1015.84
2023-04-16T04:36:20.641Z,1015.87
2023-04-16T04:37:20.836Z,1015.88
2023-04-16T04:38:21.027Z,1015.86
2023-04-16T04:39:21.218Z,1015.86
2023-04-16T04:40:21.409Z,1015.88
2023-04-16T04:41:21.552Z,1015.87
2023-04-16T04:42:21.731Z,1015.86
2023-04-16T04:43:21.921Z,1015.89
2023-04-16T04:44:22.069Z,1015.88
2023-04-16T04:45:22.274Z,1015.86
2023-04-16T04:46:22.479Z,1015.92
2023-04-16T04:47:22.705Z,1015.91
2023-04-16T04:48:22.791Z,1015.88
2023-04-16T04:49:22.975Z,1015.88
2023-04-16T04:50:23.131Z,1015.92
2023-04-16T04:51:23.309Z,1015.98
2023-04-16T04:52:23.484Z,1015.96
2023-04-16T04:53:23.635Z,1015.93
2023-04-16T04:54:23.831Z,1015.95
2023-04-16T04:55:23.968Z,1015.96
2023-04-16T04:56:24.138Z,1015.97
2023-04-16T04:57:24.318Z,1016.02
2023-04-16T04:58:24.481Z,1016.02
2023-04-16T04:59:24.651Z,1015.99
2023-04-16T05:00:24.785Z,1015.99
2023-04-16T05:01:25.056Z,1016.00
2023-04-16T05:02:25.229Z,1016.07
2023-04-16T05:03:25.395Z,1016.01
2023-04-16T05:04:25.526Z,1016.04
2023-04-16T05:05:25.771Z,1016.04
2023-04-16T05:06:26.806Z,1016.09
2023-04-16T05:07:26.012Z,1016.08
2023-04-16T05:08:26.240Z,1016.09
2023-04-16T05:09:26.402Z,1016.11
2023-04-16T05:10:26.598Z,1016.09
2023-04-16T05:11:26.745Z,1016.08
2023-04-16T05:12:26.939Z,1016.13
2023-04-16T05:13:27.161Z,1016.12
2023-04-16T05:14:27.270Z,1016.13
2023-04-16T05:15:27.439Z,1016.12
2023-04-16T05:16:27.631Z,1016.13
2023-04-16T05:17:27.814Z,1016.14
2023-04-16T05:18:28.002Z,1016.13
2023-04-16T05:19:28.156Z,1016.14
2023-04-16T05:20:28.337Z,1016.17
2023-04-16T05:21:28.509Z,1016.17
2023-04-16T05:22:28.675Z,1016.19
2023-04-16T05:23:28.834Z,1016.21
2023-04-16T05:24:29.004Z,1016.20
2023-04-16T05:25:29.152Z,1016.21
2023-04-16T05:26:29.316Z,1016.24
2023-04-16T05:27:29.485Z,1016.22
2023-04-16T05:28:29.641Z,1016.24
2023-04-16T05:29:29.829Z,1016.22
2023-04-16T05:30:30.010Z,1016.20
2023-04-16T05:31:30.158Z,1016.22
2023-04-16T05:32:30.390Z,1016.24
2023-04-16T05:33:30.485Z,1016.26
2023-04-16T05:34:30.672Z,1016.26
2023-04-16T05:35:30.857Z,1016.26
2023-04-16T05:36:31.032Z,1016.30
2023-04-16T05:37:31.279Z,1016.35
2023-04-16T05:38:31.400Z,1016.30
2023-04-16T05:39:31.558Z,1016.36
2023-04-16T05:40:31.737Z,1016.36
2023-04-16T05:41:31.903Z,1016.36
2023-04-16T05:42:32.086Z,1016.40
2023-04-16T05:43:32.253Z,1016.38
2023-04-16T05:44:32.427Z,1016.37
2023-04-16T05:45:32.590Z,1016.48
2023-04-16T05:46:32.872Z,1016.42
2023-04-16T05:47:32.991Z,1016.40
2023-04-16T05:48:33.109Z,1016.36
2023-04-16T05:49:33.278Z,1016.41
2023-04-16T05:50:33.449Z,1016.39
2023-04-16T05:51:33.645Z,1016.35
2023-04-16T05:52:33.811Z,1016.44
2023-04-16T05:53:33.980Z,1016.41
2023-04-16T05:54:34.193Z,1016.44
2023-04-16T05:55:34.283Z,1016.47
2023-04-16T05:56:34.511Z,1016.48
2023-04-16T05:57:34.653Z,1016.47
2023-04-16T05:58:34.843Z,1016.48
2023-04-16T05:59:34.967Z,1016.51
2023-04-16T06:00:35.149Z,1016.51
2023-04-16T06:01:35.328Z,1016.52
2023-04-16T06:02:35.679Z,1016.54
2023-04-16T06:03:35.734Z,1016.55
2023-04-16T06:04:35.823Z,1016.56
2023-04-16T06:05:36.042Z,1016.56
2023-04-16T06:06:36.156Z,1016.55
2023-04-16T06:07:36.326Z,1016.57
2023-04-16T06:08:36.490Z,1016.62
2023-04-16T06:09:36.774Z,1016.66
2023-04-16T06:10:36.823Z,1016.64
2023-04-16T06:11:36.998Z,1016.64
2023-04-16T06:12:37.150Z,1016.62
2023-04-16T06:13:37.292Z,1016.61
2023-04-16T06:14:37.497Z,1016.67
2023-04-16T06:15:37.729Z,1016.67
2023-04-16T06:16:37.872Z,1016.66
2023-04-16T06:17:38.000Z,1016.66
2023-04-16T06:18:38.176Z,1016.70
2023-04-16T06:19:38.329Z,1016.72
2023-04-16T06:20:38.524Z,1016.71
2023-04-16T06:21:38.711Z,1016.73
2023-04-16T06:22:38.850Z,1016.73
2023-04-16T06:23:39.016Z,1016.73
2023-04-16T06:24:39.174Z,1016.72
2023-04-16T06:25:39.349Z,1016.75
2023-04-16T06:26:39.498Z,1016.75
2023-04-16T06:27:39.700Z,1016.71
2023-04-16T06:28:39.846Z,1016.76
2023-04-16T06:29:41.731Z,1016.75
2023-04-16T06:30:41.418Z,1016.76
2023-04-16T06:31:40.365Z,1016.79
2023-04-16T06:32:40.581Z,1016.78
2023-04-16T06:33:40.723Z,1016.80
2023-04-16T06:34:40.900Z,1016.82
2023-04-16T06:35:41.083Z,1016.81
2023-04-16T06:36:41.209Z,1016.84
2023-04-16T06:37:41.382Z,1016.78
2023-04-16T06:38:41.549Z,1016.82
2023-04-16T06:39:41.735Z,1016.86
2023-04-16T06:40:41.884Z,1016.85
2023-04-16T06:41:42.051Z,1016.84
2023-04-16T06:42:44.826Z,1016.86
2023-04-16T06:43:42.445Z,1016.87
2023-04-16T06:44:42.616Z,1016.87
2023-04-16T06:45:42.744Z,1016.83
2023-04-16T06:46:42.967Z,1016.85
2023-04-16T06:47:43.158Z,1016.84
2023-04-16T06:48:43.302Z,1016.85
2023-04-16T06:49:43.403Z,1016.89
2023-04-16T06:50:43.606Z,1016.86
2023-04-16T06:51:43.742Z,1016.86
2023-04-16T06:52:43.930Z,1016.91
2023-04-16T06:53:44.062Z,1016.93
2023-04-16T06:54:44.245Z,1016.92
2023-04-16T06:55:44.392Z,1016.94
2023-04-16T06:56:44.565Z,1016.89
2023-04-16T06:57:44.745Z,1016.88
2023-04-16T06:58:44.915Z,1016.88
2023-04-16T06:59:45.092Z,1016.88
2023-04-16T07:00:45.305Z,1016.92
2023-04-16T07:01:45.479Z,1016.92
2023-04-16T07:02:45.736Z,1016.97
2023-04-16T07:03:45.976Z,1016.97
2023-04-16T07:04:45.942Z,1016.96
2023-04-16T07:05:46.115Z,1016.97
2023-04-16T07:06:46.266Z,1016.99
2023-04-16T07:07:46.435Z,1016.95
2023-04-16T07:08:46.668Z,1017.01
2023-04-16T07:09:46.763Z,1016.96
2023-04-16T07:10:46.954Z,1016.98
2023-04-16T07:11:47.152Z,1016.99
2023-04-16T07:12:47.259Z,1016.97
2023-04-16T07:13:47.439Z,1017.00
2023-04-16T07:14:47.593Z,1017.03
2023-04-16T07:15:47.785Z,1017.04
2023-04-16T07:16:47.960Z,1017.05
2023-04-16T07:17:48.136Z,1017.10
2023-04-16T07:18:48.289Z,1017.08
2023-04-16T07:19:48.407Z,1017.08
2023-04-16T07:20:48.638Z,1017.10
2023-04-16T07:21:48.764Z,1017.12
2023-04-16T07:22:48.943Z,1017.16
2023-04-16T07:23:49.116Z,1017.15
2023-04-16T07:24:49.279Z,1017.16
2023-04-16T07:25:49.470Z,1017.15
2023-04-16T07:26:49.632Z,1017.18
2023-04-16T07:27:49.783Z,1017.20
2023-04-16T07:28:49.931Z,1017.20
2023-04-16T07:29:50.099Z,1017.23
2023-04-16T07:30:50.328Z,1017.27
2023-04-16T07:31:50.512Z,1017.25
2023-04-16T07:32:50.667Z,1017.24
2023-04-16T07:33:50.805Z,1017.23
2023-04-16T07:34:50.966Z,1017.28
2023-04-16T07:35:51.152Z,1017.27
2023-04-16T07:36:51.312Z,1017.25
2023-04-16T07:37:51.457Z,1017.26
2023-04-16T07:38:51.638Z,1017.26
2023-04-16T07:39:51.839Z,1017.24
2023-04-16T07:40:51.972Z,1017.27
2023-04-16T07:41:52.118Z,1017.30
2023-04-16T07:42:52.306Z,1017.36
2023-04-16T07:43:52.463Z,1017.32
2023-04-16T07:44:52.654Z,1017.37
2023-04-16T07:45:52.857Z,1017.41
2023-04-16T07:46:53.064Z,1017.40
2023-04-16T07:47:53.182Z,1017.38
2023-04-16T07:48:53.306Z,1017.38
2023-04-16T07:49:53.477Z,1017.36
2023-04-16T07:50:53.642Z,1017.42
2023-04-16T07:51:53.806Z,1017.43
2023-04-16T07:52:53.971Z,1017.40
2023-04-16T07:53:54.132Z,1017.42
2023-04-16T07:54:54.317Z,1017.37
2023-04-16T07:55:54.555Z,1017.39
2023-04-16T07:56:54.697Z,1017.44
2023-04-16T07:57:54.870Z,1017.41
2023-04-16T07:58:55.053Z,1017.43
2023-04-16T07:59:55.211Z,1017.41
2023-04-16T08:00:55.404Z,1017.40
2023-04-16T08:01:55.592Z,1017.41
2023-04-16T08:02:55.813Z,1017.43
2023-04-16T08:03:55.920Z,1017.45
2023-04-16T08:04:56.149Z,1017.49
2023-04-16T08:05:56.261Z,1017.46
2023-04-16T08:06:56.460Z,1017.49
2023-04-16T08:07:56.607Z,1017.47
2023-04-16T08:08:56.741Z,1017.53
2023-04-16T08:09:56.951Z,1017.51
2023-04-16T08:10:57.133Z,1017.49
2023-04-16T08:11:57.276Z,1017.51
2023-04-16T08:12:57.466Z,1017.52
2023-04-16T08:13:57.667Z,1017.54
2023-04-16T08:14:57.807Z,1017.53
2023-04-16T08:15:58.069Z,1017.49
2023-04-16T08:16:58.210Z,1017.51
2023-04-16T08:17:58.380Z,1017.54
2023-04-16T08:18:58.491Z,1017.52
2023-04-16T08:19:58.681Z,1017.52
2023-04-16T08:20:58.869Z,1017.51
2023-04-16T08:21:58.992Z,1017.56
2023-04-16T08:22:59.178Z,1017.54
2023-04-16T08:23:59.384Z,1017.58
2023-04-16T08:24:59.551Z,1017.62
2023-04-16T08:25:59.729Z,1017.62
2023-04-16T08:27:11.263Z,1017.66
2023-04-16T08:28:01.084Z,1017.67
2023-04-16T08:29:00.275Z,1017.68
2023-04-16T08:30:00.429Z,1017.64
2023-04-16T08:31:00.656Z,1017.63
2023-04-16T08:32:00.766Z,1017.64
2023-04-16T08:33:01.018Z,1017.65
2023-04-16T08:34:01.114Z,1017.65
2023-04-16T08:35:01.281Z,1017.69
2023-04-16T08:36:01.466Z,1017.71
2023-04-16T08:37:01.684Z,1017.73
2023-04-16T08:38:02.496Z,1017.76
2023-04-16T08:39:01.985Z,1017.72
2023-04-16T08:40:02.213Z,1017.72
2023-04-16T08:41:02.356Z,1017.74
2023-04-16T08:42:02.506Z,1017.74
2023-04-16T08:43:02.674Z,1017.80
2023-04-16T08:44:02.860Z,1017.81
2023-04-16T08:45:03.058Z,1017.82
2023-04-16T08:46:03.221Z,1017.79
2023-04-16T08:47:03.418Z,1017.83
2023-04-16T08:48:03.570Z,1017.81
2023-04-16T08:49:03.730Z,1017.87
2023-04-16T08:50:03.893Z,1017.88
2023-04-16T08:51:04.095Z,1017.88
2023-04-16T08:52:04.263Z,1017.95
2023-04-16T08:53:04.428Z,1017.93
2023-04-16T08:54:04.590Z,1017.89
2023-04-16T08:55:04.748Z,1017.96
2023-04-16T08:56:04.923Z,1017.96
2023-04-16T08:57:05.092Z,1017.95
2023-04-16T08:58:05.236Z,1017.94
2023-04-16T08:59:05.413Z,1017.93
2023-04-16T09:00:05.590Z,1017.98
2023-04-16T09:01:05.766Z,1017.91
2023-04-16T09:02:06.001Z,1017.94
2023-04-16T09:03:06.397Z,1017.91
2023-04-16T09:04:06.533Z,1017.90
2023-04-16T09:05:06.448Z,1017.93
2023-04-16T09:06:06.650Z,1017.92
2023-04-16T09:07:06.820Z,1017.93
2023-04-16T09:08:06.999Z,1017.92
2023-04-16T09:09:07.237Z,1017.95
2023-04-16T09:10:07.345Z,1017.97
2023-04-16T09:11:07.538Z,1017.94
2023-04-16T09:12:07.676Z,1017.98
2023-04-16T09:13:07.832Z,1018.01
2023-04-16T09:14:07.988Z,1018.01
2023-04-16T09:15:08.136Z,1018.00
2023-04-16T09:16:08.379Z,1017.99
2023-04-16T09:17:08.466Z,1018.00
2023-04-16T09:18:08.674Z,1018.05
2023-04-16T09:19:09.170Z,1018.04
2023-04-16T09:20:09.022Z,1018.09
2023-04-16T09:21:09.265Z,1018.06
2023-04-16T09:22:09.393Z,1018.06
2023-04-16T09:23:09.553Z,1018.10
2023-04-16T09:24:09.709Z,1018.11
2023-04-16T09:25:09.907Z,1018.10
2023-04-16T09:26:10.345Z,1018.08
2023-04-16T09:27:10.251Z,1018.11
2023-04-16T09:28:10.436Z,1018.11
2023-04-16T09:29:10.840Z,1018.11
2023-04-16T09:30:10.791Z,1018.16
2023-04-16T09:31:10.972Z,1018.13
2023-04-16T09:32:11.210Z,1018.11
2023-04-16T09:33:11.289Z,1018.18
2023-04-16T09:34:11.453Z,1018.18
2023-04-16T09:35:11.635Z,1018.14
2023-04-16T09:36:11.791Z,1018.14
2023-04-16T09:37:11.929Z,1018.18
2023-04-16T09:38:12.127Z,1018.18
2023-04-16T09:39:12.295Z,1018.17
2023-04-16T09:40:12.473Z,1018.18
2023-04-16T09:41:12.672Z,1018.16
2023-04-16T09:42:12.803Z,1018.18
2023-04-16T09:43:12.975Z,1018.26
2023-04-16T09:44:13.178Z,1018.19
2023-04-16T09:45:13.331Z,1018.20
2023-04-16T09:46:13.567Z,1018.25
2023-04-16T09:47:13.696Z,1018.24
2023-04-16T09:48:13.838Z,1018.24
2023-04-16T09:49:14.026Z,1018.23
2023-04-16T09:50:15.376Z,1018.27
2023-04-16T09:51:14.393Z,1018.28
2023-04-16T09:52:14.573Z,1018.26
2023-04-16T09:53:14.749Z,1018.28
2023-04-16T09:54:14.895Z,1018.28
2023-04-16T09:55:15.061Z,1018.30
2023-04-16T09:56:15.214Z,1018.31
2023-04-16T09:57:15.364Z,1018.33
2023-04-16T09:58:15.587Z,1018.31
2023-04-16T09:59:15.745Z,1018.33
2023-04-16T10:00:15.921Z,1018.33
2023-04-16T10:01:16.136Z,1018.35
2023-04-16T10:02:16.639Z,1018.33
2023-04-16T10:03:16.519Z,1018.34
2023-04-16T10:04:16.684Z,1018.33
2023-04-16T10:05:16.803Z,1018.31
2023-04-16T10:06:16.957Z,1018.32
2023-04-16T10:07:17.089Z,1018.34
2023-04-16T10:08:17.226Z,1018.33
2023-04-16T10:09:17.438Z,1018.38
2023-04-16T10:10:17.580Z,1018.33
2023-04-16T10:11:17.802Z,1018.38
2023-04-16T10:12:17.948Z,1018.38
2023-04-16T10:13:18.095Z,1018.36
2023-04-16T10:14:18.279Z,1018.35
2023-04-16T10:15:18.447Z,1018.40
2023-04-16T10:16:18.682Z,1018.40
2023-04-16T10:17:18.805Z,1018.41
2023-04-16T10:18:18.985Z,1018.43
2023-04-16T10:19:19.152Z,1018.43
2023-04-16T10:20:19.367Z,1018.42
2023-04-16T10:21:19.513Z,1018.42
2023-04-16T10:22:19.701Z,1018.44
2023-04-16T10:23:19.885Z,1018.45
2023-04-16T10:24:20.042Z,1018.47
2023-04-16T10:25:20.208Z,1018.45
2023-04-16T10:26:20.406Z,1018.48
2023-04-16T10:27:20.590Z,1018.49
2023-04-16T10:28:20.783Z,1018.52
2023-04-16T10:29:20.917Z,1018.52
2023-04-16T10:30:21.104Z,1018.55
2023-04-16T10:31:21.358Z,1018.55
2023-04-16T10:32:21.480Z,1018.53
2023-04-16T10:33:21.643Z,1018.51
2023-04-16T10:34:21.837Z,1018.52
2023-04-16T10:35:22.050Z,1018.52
2023-04-16T10:36:22.221Z,1018.56
2023-04-16T10:37:22.378Z,1018.54
2023-04-16T10:38:22.576Z,1018.51
2023-04-16T10:39:22.723Z,1018.53
2023-04-16T10:40:22.898Z,1018.50
2023-04-16T10:41:23.087Z,1018.50
2023-04-16T10:42:23.240Z,1018.52
2023-04-16T10:43:23.395Z,1018.54
2023-04-16T10:44:23.549Z,1018.52
2023-04-16T10:45:23.723Z,1018.52
2023-04-16T10:46:23.970Z,1018.52
2023-04-16T10:47:24.086Z,1018.50
2023-04-16T10:48:24.271Z,1018.56
2023-04-16T10:49:24.438Z,1018.53
2023-04-16T10:50:24.592Z,1018.54
2023-04-16T10:51:24.764Z,1018.53
2023-04-16T10:52:24.989Z,1018.56
2023-04-16T10:53:25.115Z,1018.57
2023-04-16T10:54:25.260Z,1018.58
2023-04-16T10:55:25.426Z,1018.58
2023-04-16T10:56:25.574Z,1018.56
2023-04-16T10:57:25.750Z,1018.61
2023-04-16T10:58:25.934Z,1018.54
2023-04-16T10:59:26.118Z,1018.59
2023-04-16T11:00:26.296Z,1018.61
2023-04-16T11:01:26.485Z,1018.62
2023-04-16T11:02:27.860Z,1018.64
2023-04-16T11:03:26.874Z,1018.65
2023-04-16T11:04:27.049Z,1018.60
2023-04-16T11:05:27.138Z,1018.65
2023-04-16T11:06:27.328Z,1018.60
2023-04-16T11:07:27.489Z,1018.60
2023-04-16T11:08:27.647Z,1018.58
2023-04-16T11:09:27.807Z,1018.62
2023-04-16T11:10:27.975Z,1018.59
2023-04-16T11:11:28.163Z,1018.64
2023-04-16T11:12:28.326Z,1018.62
2023-04-16T11:13:28.487Z,1018.60
2023-04-16T11:14:28.685Z,1018.63
2023-04-16T11:15:28.842Z,1018.64
2023-04-16T11:16:29.058Z,1018.62
2023-04-16T11:17:29.217Z,1018.61
2023-04-16T11:18:29.397Z,1018.62
2023-04-16T11:19:29.563Z,1018.70
2023-04-16T11:20:29.741Z,1018.67
2023-04-16T11:21:29.921Z,1018.74
2023-04-16T11:22:30.068Z,1018.70
2023-04-16T11:23:30.269Z,1018.73
2023-04-16T11:24:30.417Z,1018.75
2023-04-16T11:25:30.593Z,1018.73
2023-04-16T11:26:30.920Z,1018.75
2023-04-16T11:27:30.915Z,1018.74
2023-04-16T11:28:31.095Z,1018.78
2023-04-16T11:29:31.247Z,1018.74
2023-04-16T11:30:31.425Z,1018.78
2023-04-16T11:31:31.582Z,1018.75
2023-04-16T11:32:31.805Z,1018.74
2023-04-16T11:33:31.967Z,1018.76
2023-04-16T11:34:32.113Z,1018.78
2023-04-16T11:35:32.290Z,1018.76
2023-04-16T11:36:32.479Z,1018.80
2023-04-16T11:37:32.631Z,1018.79
2023-04-16T11:38:32.812Z,1018.79
2023-04-16T11:39:33.002Z,1018.79
2023-04-16T11:40:33.162Z,1018.80
2023-04-16T11:41:33.351Z,1018.79
2023-04-16T11:42:33.607Z,1018.79
2023-04-16T11:43:33.683Z,1018.79
2023-04-16T11:44:33.892Z,1018.83
2023-04-16T11:45:34.056Z,1018.84
2023-04-16T11:46:34.257Z,1018.85
2023-04-16T11:47:34.505Z,1018.85
2023-04-16T11:48:34.575Z,1018.85
2023-04-16T11:49:34.775Z,1018.86
2023-04-16T11:50:34.921Z,1018.88
2023-04-16T11:51:35.116Z,1018.86
2023-04-16T11:52:35.256Z,1018.84
2023-04-16T11:53:35.491Z,1018.87
2023-04-16T11:54:35.623Z,1018.88
2023-04-16T11:55:35.799Z,1018.90
2023-04-16T11:56:35.994Z,1018.86
2023-04-16T11:57:36.155Z,1018.87
2023-04-16T11:58:36.332Z,1018.90
2023-04-16T11:59:37.540Z,1018.92
2023-04-16T12:00:37.701Z,1018.92
2023-04-16T12:01:36.900Z,1018.95
2023-04-16T12:02:37.206Z,1018.92
2023-04-16T12:03:37.605Z,1018.92
2023-04-16T12:04:37.558Z,1018.92
2023-04-16T12:05:37.598Z,1018.92
2023-04-16T12:06:37.810Z,1018.93
2023-04-16T12:07:37.998Z,1018.95